sensor_id;sensor_type;location;lat;lon;timestamp;P1;durP1;ratioP1;P2;durP2;ratioP2
52434;SDS011;38354;52.892;6.148;2022-11-15T04:02:20;74.55;;;26.90;;
52434;SDS011;38354;52.892;6.148;2022-11-15T04:04:45;71.00;;;27.38;;
52434;SDS011;38354;52.892;6.148;2022-11-15T04:07:11;79.50;;;28.23;;
52434;SDS011;38354;52.892;6.148;2022-11-15T04:09:37;74.60;;;29.55;;
52434;SDS011;38354;52.892;6.148;2022-11-15T04:12:22;78.22;;;29.40;;
52434;SDS011;38354;52.892;6.148;2022-11-15T04:14:55;78.40;;;29.02;;
52434;SDS011;38354;52.892;6.148;2022-11-15T04:20:00;79.20;;;31.88;;
52434;SDS011;38354;52.892;6.148;2022-11-15T04:22:45;86.20;;;30.45;;
52434;SDS011;38354;52.892;6.148;2022-11-15T04:25:29;100.65;;;33.58;;
52434;SDS011;38354;52.892;6.148;2022-11-15T04:27:54;91.68;;;32.33;;
52434;SDS011;38354;52.892;6.148;2022-11-15T04:30:20;100.13;;;34.20;;
52434;SDS011;38354;52.892;6.148;2022-11-15T04:32:45;89.40;;;32.42;;
52434;SDS011;38354;52.892;6.148;2022-11-15T04:35:11;92.45;;;33.88;;
52434;SDS011;38354;52.892;6.148;2022-11-15T04:37:37;91.95;;;34.35;;
52434;SDS011;38354;52.892;6.148;2022-11-15T04:40:03;92.72;;;33.30;;
52434;SDS011;38354;52.892;6.148;2022-11-15T04:42:29;102.93;;;35.58;;
52434;SDS011;38354;52.892;6.148;2022-11-15T04:44:54;106.28;;;35.85;;
52434;SDS011;38354;52.892;6.148;2022-11-15T04:47:20;102.85;;;35.60;;
52434;SDS011;38354;52.892;6.148;2022-11-15T04:49:46;102.90;;;35.35;;
52434;SDS011;38354;52.892;6.148;2022-11-15T04:52:12;112.60;;;37.47;;
52434;SDS011;38354;52.892;6.148;2022-11-15T04:54:37;112.05;;;38.17;;
52434;SDS011;38354;52.892;6.148;2022-11-15T04:57:03;117.68;;;38.63;;
52434;SDS011;38354;52.892;6.148;2022-11-15T04:59:28;107.22;;;36.47;;
52434;SDS011;38354;52.892;6.148;2022-11-15T05:01:54;114.85;;;37.80;;
52434;SDS011;38354;52.892;6.148;2022-11-15T05:04:20;113.20;;;40.28;;
52434;SDS011;38354;52.892;6.148;2022-11-15T05:06:49;120.72;;;39.70;;
52434;SDS011;38354;52.892;6.148;2022-11-15T05:09:16;109.55;;;38.17;;
52434;SDS011;38354;52.892;6.148;2022-11-15T05:11:43;120.55;;;39.60;;
52434;SDS011;38354;52.892;6.148;2022-11-15T05:14:09;132.23;;;40.75;;
52434;SDS011;38354;52.892;6.148;2022-11-15T05:16:34;137.70;;;41.55;;
52434;SDS011;38354;52.892;6.148;2022-11-15T05:19:00;144.85;;;42.65;;
52434;SDS011;38354;52.892;6.148;2022-11-15T05:21:26;123.00;;;43.67;;
52434;SDS011;38354;52.892;6.148;2022-11-15T05:23:52;139.63;;;41.72;;
52434;SDS011;38354;52.892;6.148;2022-11-15T05:26:18;128.52;;;42.30;;
52434;SDS011;38354;52.892;6.148;2022-11-15T05:28:43;126.72;;;39.63;;
52434;SDS011;38354;52.892;6.148;2022-11-15T05:31:14;130.93;;;42.50;;
52434;SDS011;38354;52.892;6.148;2022-11-15T05:33:41;148.45;;;41.80;;
52434;SDS011;38354;52.892;6.148;2022-11-15T05:38:43;127.50;;;40.53;;
52434;SDS011;38354;52.892;6.148;2022-11-15T05:41:09;137.38;;;42.30;;
52434;SDS011;38354;52.892;6.148;2022-11-15T05:43:36;132.40;;;43.22;;
52434;SDS011;38354;52.892;6.148;2022-11-15T05:46:03;134.68;;;43.92;;
52434;SDS011;38354;52.892;6.148;2022-11-15T05:48:29;139.40;;;42.47;;
52434;SDS011;38354;52.892;6.148;2022-11-15T05:50:56;130.70;;;41.05;;
52434;SDS011;38354;52.892;6.148;2022-11-15T05:53:23;149.68;;;43.67;;
52434;SDS011;38354;52.892;6.148;2022-11-15T05:55:51;145.93;;;42.75;;
52434;SDS011;38354;52.892;6.148;2022-11-15T05:58:17;137.25;;;43.25;;
52434;SDS011;38354;52.892;6.148;2022-11-15T06:00:46;138.50;;;44.10;;
52434;SDS011;38354;52.892;6.148;2022-11-15T06:03:12;143.45;;;45.22;;
52434;SDS011;38354;52.892;6.148;2022-11-15T06:05:39;132.98;;;42.47;;
52434;SDS011;38354;52.892;6.148;2022-11-15T06:08:05;138.15;;;43.75;;
52434;SDS011;38354;52.892;6.148;2022-11-15T06:10:31;134.55;;;43.53;;
52434;SDS011;38354;52.892;6.148;2022-11-15T06:13:01;141.90;;;44.03;;
52434;SDS011;38354;52.892;6.148;2022-11-15T06:15:28;137.30;;;43.95;;
52434;SDS011;38354;52.892;6.148;2022-11-15T06:17:57;118.93;;;40.00;;
52434;SDS011;38354;52.892;6.148;2022-11-15T06:20:24;127.65;;;42.80;;
52434;SDS011;38354;52.892;6.148;2022-11-15T06:22:50;123.75;;;42.65;;
52434;SDS011;38354;52.892;6.148;2022-11-15T06:25:20;114.93;;;40.83;;
52434;SDS011;38354;52.892;6.148;2022-11-15T06:27:50;121.03;;;42.00;;
52434;SDS011;38354;52.892;6.148;2022-11-15T06:30:20;118.00;;;41.50;;
52434;SDS011;38354;52.892;6.148;2022-11-15T06:32:46;112.95;;;41.42;;
52434;SDS011;38354;52.892;6.148;2022-11-15T06:35:12;111.72;;;39.83;;
52434;SDS011;38354;52.892;6.148;2022-11-15T06:37:38;121.72;;;42.15;;
52434;SDS011;38354;52.892;6.148;2022-11-15T06:40:05;114.25;;;39.70;;
52434;SDS011;38354;52.892;6.148;2022-11-15T06:42:31;111.57;;;41.75;;
52434;SDS011;38354;52.892;6.148;2022-11-15T06:44:57;102.68;;;38.72;;
52434;SDS011;38354;52.892;6.148;2022-11-15T06:47:22;115.68;;;39.33;;
52434;SDS011;38354;52.892;6.148;2022-11-15T06:49:48;113.95;;;39.58;;
52434;SDS011;38354;52.892;6.148;2022-11-15T06:52:14;98.25;;;38.75;;
52434;SDS011;38354;52.892;6.148;2022-11-15T06:54:39;112.88;;;40.40;;
52434;SDS011;38354;52.892;6.148;2022-11-15T06:57:05;104.10;;;37.53;;
52434;SDS011;38354;52.892;6.148;2022-11-15T06:59:30;100.72;;;38.80;;
52434;SDS011;38354;52.892;6.148;2022-11-15T07:01:56;103.25;;;38.65;;
52434;SDS011;38354;52.892;6.148;2022-11-15T07:04:22;112.97;;;40.22;;
52434;SDS011;38354;52.892;6.148;2022-11-15T07:06:47;94.15;;;37.33;;
52434;SDS011;38354;52.892;6.148;2022-11-15T07:09:13;100.50;;;39.38;;
52434;SDS011;38354;52.892;6.148;2022-11-15T07:11:39;105.05;;;40.13;;
52434;SDS011;38354;52.892;6.148;2022-11-15T07:14:05;96.75;;;37.67;;
52434;SDS011;38354;52.892;6.148;2022-11-15T07:16:31;102.80;;;38.25;;
52434;SDS011;38354;52.892;6.148;2022-11-15T07:18:56;88.40;;;35.78;;
52434;SDS011;38354;52.892;6.148;2022-11-15T07:21:22;97.03;;;36.72;;
52434;SDS011;38354;52.892;6.148;2022-11-15T07:23:48;89.85;;;37.63;;
52434;SDS011;38354;52.892;6.148;2022-11-15T07:26:13;106.20;;;39.80;;
52434;SDS011;38354;52.892;6.148;2022-11-15T07:28:39;88.90;;;36.55;;
52434;SDS011;38354;52.892;6.148;2022-11-15T07:31:06;86.28;;;37.22;;
52434;SDS011;38354;52.892;6.148;2022-11-15T07:33:33;89.28;;;35.55;;
52434;SDS011;38354;52.892;6.148;2022-11-15T07:36:00;91.15;;;36.17;;
52434;SDS011;38354;52.892;6.148;2022-11-15T07:38:27;79.30;;;34.15;;
52434;SDS011;38354;52.892;6.148;2022-11-15T07:41:00;91.20;;;35.85;;
52434;SDS011;38354;52.892;6.148;2022-11-15T07:43:27;81.35;;;34.60;;
52434;SDS011;38354;52.892;6.148;2022-11-15T07:45:54;80.13;;;34.90;;
52434;SDS011;38354;52.892;6.148;2022-11-15T07:48:21;94.53;;;36.22;;
52434;SDS011;38354;52.892;6.148;2022-11-15T07:50:48;81.55;;;35.47;;
52434;SDS011;38354;52.892;6.148;2022-11-15T07:53:13;89.30;;;36.85;;
52434;SDS011;38354;52.892;6.148;2022-11-15T07:55:40;78.22;;;35.67;;
52434;SDS011;38354;52.892;6.148;2022-11-15T07:58:07;83.13;;;36.10;;
52434;SDS011;38354;52.892;6.148;2022-11-15T08:00:35;82.75;;;35.50;;
52434;SDS011;38354;52.892;6.148;2022-11-15T08:03:06;87.10;;;36.47;;
52434;SDS011;38354;52.892;6.148;2022-11-15T08:05:33;88.97;;;36.92;;
52434;SDS011;38354;52.892;6.148;2022-11-15T08:08:00;79.95;;;35.47;;
52434;SDS011;38354;52.892;6.148;2022-11-15T08:10:27;84.80;;;36.65;;
52434;SDS011;38354;52.892;6.148;2022-11-15T08:13:00;70.30;;;32.97;;
52434;SDS011;38354;52.892;6.148;2022-11-15T08:15:29;78.43;;;34.92;;
52434;SDS011;38354;52.892;6.148;2022-11-15T08:18:03;80.18;;;35.00;;
52434;SDS011;38354;52.892;6.148;2022-11-15T08:20:30;73.40;;;33.25;;
52434;SDS011;38354;52.892;6.148;2022-11-15T08:22:57;73.53;;;33.58;;
52434;SDS011;38354;52.892;6.148;2022-11-15T08:25:24;72.00;;;33.78;;
52434;SDS011;38354;52.892;6.148;2022-11-15T08:27:54;68.53;;;32.05;;
52434;SDS011;38354;52.892;6.148;2022-11-15T08:30:21;65.32;;;30.77;;
52434;SDS011;38354;52.892;6.148;2022-11-15T08:32:48;68.50;;;32.92;;
52434;SDS011;38354;52.892;6.148;2022-11-15T08:35:14;68.72;;;31.63;;
52434;SDS011;38354;52.892;6.148;2022-11-15T08:37:40;69.38;;;32.25;;
52434;SDS011;38354;52.892;6.148;2022-11-15T08:40:06;66.97;;;31.20;;
52434;SDS011;38354;52.892;6.148;2022-11-15T08:42:32;64.47;;;30.80;;
52434;SDS011;38354;52.892;6.148;2022-11-15T08:44:58;71.10;;;31.27;;
52434;SDS011;38354;52.892;6.148;2022-11-15T08:47:24;66.93;;;30.58;;
52434;SDS011;38354;52.892;6.148;2022-11-15T08:49:50;64.90;;;30.20;;
52434;SDS011;38354;52.892;6.148;2022-11-15T08:52:15;59.80;;;30.58;;
52434;SDS011;38354;52.892;6.148;2022-11-15T08:54:41;64.90;;;31.38;;
52434;SDS011;38354;52.892;6.148;2022-11-15T08:57:07;67.00;;;31.55;;
52434;SDS011;38354;52.892;6.148;2022-11-15T08:59:34;62.53;;;30.63;;
52434;SDS011;38354;52.892;6.148;2022-11-15T09:02:01;63.70;;;29.73;;
52434;SDS011;38354;52.892;6.148;2022-11-15T09:04:27;59.25;;;29.80;;
52434;SDS011;38354;52.892;6.148;2022-11-15T09:06:52;58.63;;;30.45;;
52434;SDS011;38354;52.892;6.148;2022-11-15T09:09:18;58.53;;;29.98;;
52434;SDS011;38354;52.892;6.148;2022-11-15T09:11:44;61.25;;;29.23;;
52434;SDS011;38354;52.892;6.148;2022-11-15T09:14:10;56.40;;;29.23;;
52434;SDS011;38354;52.892;6.148;2022-11-15T09:16:37;54.90;;;28.95;;
52434;SDS011;38354;52.892;6.148;2022-11-15T09:19:03;55.47;;;29.00;;
52434;SDS011;38354;52.892;6.148;2022-11-15T09:21:29;62.50;;;29.13;;
52434;SDS011;38354;52.892;6.148;2022-11-15T09:23:55;55.67;;;28.27;;
52434;SDS011;38354;52.892;6.148;2022-11-15T09:26:21;57.35;;;29.08;;
52434;SDS011;38354;52.892;6.148;2022-11-15T09:28:47;47.42;;;27.08;;
52434;SDS011;38354;52.892;6.148;2022-11-15T09:31:12;54.15;;;28.00;;
52434;SDS011;38354;52.892;6.148;2022-11-15T09:33:38;55.53;;;27.23;;
52434;SDS011;38354;52.892;6.148;2022-11-15T09:36:05;59.38;;;29.25;;
52434;SDS011;38354;52.892;6.148;2022-11-15T09:38:32;52.40;;;27.77;;
52434;SDS011;38354;52.892;6.148;2022-11-15T09:41:13;55.42;;;27.98;;
52434;SDS011;38354;52.892;6.148;2022-11-15T09:48:51;46.78;;;26.45;;
52434;SDS011;38354;52.892;6.148;2022-11-15T09:51:30;48.08;;;26.42;;
52434;SDS011;38354;52.892;6.148;2022-11-15T09:54:01;45.63;;;25.38;;
52434;SDS011;38354;52.892;6.148;2022-11-15T09:56:39;50.05;;;25.88;;
52434;SDS011;38354;52.892;6.148;2022-11-15T10:04:59;48.75;;;24.45;;
52434;SDS011;38354;52.892;6.148;2022-11-15T10:07:27;47.85;;;23.40;;
52434;SDS011;38354;52.892;6.148;2022-11-15T10:10:02;40.92;;;24.10;;
52434;SDS011;38354;52.892;6.148;2022-11-15T10:12:47;47.67;;;22.77;;
52434;SDS011;38354;52.892;6.148;2022-11-15T10:15:15;44.40;;;23.25;;
52434;SDS011;38354;52.892;6.148;2022-11-15T10:22:56;38.63;;;20.85;;
52434;SDS011;38354;52.892;6.148;2022-11-15T10:25:26;38.78;;;20.85;;
52434;SDS011;38354;52.892;6.148;2022-11-15T10:28:01;36.55;;;21.40;;
52434;SDS011;38354;52.892;6.148;2022-11-15T10:30:49;34.35;;;20.20;;
52434;SDS011;38354;52.892;6.148;2022-11-15T10:33:19;33.47;;;19.95;;
52434;SDS011;38354;52.892;6.148;2022-11-15T10:41:20;32.38;;;18.38;;
52434;SDS011;38354;52.892;6.148;2022-11-15T10:44:01;31.50;;;18.25;;
52434;SDS011;38354;52.892;6.148;2022-11-15T10:46:42;26.00;;;16.88;;
52434;SDS011;38354;52.892;6.148;2022-11-15T10:49:15;26.10;;;16.17;;
52434;SDS011;38354;52.892;6.148;2022-11-15T10:56:49;31.80;;;15.77;;
52434;SDS011;38354;52.892;6.148;2022-11-15T10:59:18;24.50;;;14.20;;
52434;SDS011;38354;52.892;6.148;2022-11-15T11:01:53;20.85;;;12.70;;
52434;SDS011;38354;52.892;6.148;2022-11-15T11:04:19;23.50;;;13.15;;
52434;SDS011;38354;52.892;6.148;2022-11-15T11:06:52;19.63;;;12.43;;
52434;SDS011;38354;52.892;6.148;2022-11-15T11:09:23;18.13;;;11.15;;
52434;SDS011;38354;52.892;6.148;2022-11-15T11:11:59;19.77;;;11.27;;
52434;SDS011;38354;52.892;6.148;2022-11-15T11:14:29;18.88;;;11.07;;
52434;SDS011;38354;52.892;6.148;2022-11-15T11:22:30;15.73;;;10.70;;
52434;SDS011;38354;52.892;6.148;2022-11-15T11:33:40;17.55;;;9.88;;
52434;SDS011;38354;52.892;6.148;2022-11-15T11:36:27;15.63;;;9.50;;
52434;SDS011;38354;52.892;6.148;2022-11-15T11:44:40;18.67;;;8.40;;
52434;SDS011;38354;52.892;6.148;2022-11-15T11:47:20;17.65;;;9.07;;
52434;SDS011;38354;52.892;6.148;2022-11-15T11:52:34;13.30;;;8.70;;
52434;SDS011;38354;52.892;6.148;2022-11-15T11:55:14;10.10;;;7.15;;
52434;SDS011;38354;52.892;6.148;2022-11-15T11:57:56;9.75;;;6.38;;
52434;SDS011;38354;52.892;6.148;2022-11-15T12:00:33;10.87;;;5.83;;
52434;SDS011;38354;52.892;6.148;2022-11-15T12:03:12;12.27;;;6.28;;
52434;SDS011;38354;52.892;6.148;2022-11-15T12:05:51;11.65;;;6.15;;
52434;SDS011;38354;52.892;6.148;2022-11-15T12:08:41;12.13;;;5.40;;
52434;SDS011;38354;52.892;6.148;2022-11-15T12:14:34;10.82;;;5.90;;
52434;SDS011;38354;52.892;6.148;2022-11-15T12:17:11;11.20;;;5.78;;
52434;SDS011;38354;52.892;6.148;2022-11-15T12:19:37;7.88;;;4.55;;
52434;SDS011;38354;52.892;6.148;2022-11-15T12:25:08;11.60;;;4.95;;
52434;SDS011;38354;52.892;6.148;2022-11-15T12:27:46;9.15;;;5.43;;
52434;SDS011;38354;52.892;6.148;2022-11-15T12:30:18;7.35;;;4.80;;
52434;SDS011;38354;52.892;6.148;2022-11-15T12:32:49;8.32;;;4.63;;
52434;SDS011;38354;52.892;6.148;2022-11-15T12:35:35;7.50;;;5.00;;
52434;SDS011;38354;52.892;6.148;2022-11-15T12:38:08;7.85;;;4.15;;
52434;SDS011;38354;52.892;6.148;2022-11-15T12:40:39;7.22;;;4.45;;
52434;SDS011;38354;52.892;6.148;2022-11-15T12:43:53;7.38;;;4.53;;
52434;SDS011;38354;52.892;6.148;2022-11-15T12:51:21;9.45;;;5.25;;
52434;SDS011;38354;52.892;6.148;2022-11-15T13:04:47;7.22;;;3.83;;
52434;SDS011;38354;52.892;6.148;2022-11-15T13:09:58;6.60;;;3.40;;
52434;SDS011;38354;52.892;6.148;2022-11-15T13:17:25;8.15;;;3.35;;
52434;SDS011;38354;52.892;6.148;2022-11-15T13:22:39;7.47;;;3.45;;
52434;SDS011;38354;52.892;6.148;2022-11-15T13:30:35;6.25;;;3.00;;
52434;SDS011;38354;52.892;6.148;2022-11-15T13:33:13;5.50;;;3.08;;
52434;SDS011;38354;52.892;6.148;2022-11-15T13:35:46;5.50;;;2.50;;
52434;SDS011;38354;52.892;6.148;2022-11-15T13:38:19;6.57;;;2.72;;
52434;SDS011;38354;52.892;6.148;2022-11-15T13:40:51;6.80;;;3.03;;
52434;SDS011;38354;52.892;6.148;2022-11-15T13:43:38;4.47;;;2.47;;
52434;SDS011;38354;52.892;6.148;2022-11-15T13:48:34;6.43;;;2.70;;
52434;SDS011;38354;52.892;6.148;2022-11-15T13:51:01;3.97;;;2.15;;
52434;SDS011;38354;52.892;6.148;2022-11-15T13:53:30;4.68;;;2.30;;
52434;SDS011;38354;52.892;6.148;2022-11-15T13:55:58;4.53;;;2.22;;
52434;SDS011;38354;52.892;6.148;2022-11-15T13:58:24;5.05;;;2.30;;
52434;SDS011;38354;52.892;6.148;2022-11-15T14:00:58;4.15;;;2.15;;
52434;SDS011;38354;52.892;6.148;2022-11-15T14:03:32;4.70;;;2.30;;
52434;SDS011;38354;52.892;6.148;2022-11-15T14:06:10;4.45;;;1.88;;
52434;SDS011;38354;52.892;6.148;2022-11-15T14:09:01;5.47;;;2.00;;
52434;SDS011;38354;52.892;6.148;2022-11-15T14:11:26;4.40;;;1.75;;
52434;SDS011;38354;52.892;6.148;2022-11-15T14:14:26;4.57;;;1.50;;
52434;SDS011;38354;52.892;6.148;2022-11-15T14:16:47;2.80;;;1.70;;
52434;SDS011;38354;52.892;6.148;2022-11-15T14:27:37;3.45;;;1.80;;
52434;SDS011;38354;52.892;6.148;2022-11-15T14:30:04;4.75;;;1.67;;
52434;SDS011;38354;52.892;6.148;2022-11-15T14:32:39;4.78;;;1.50;;
52434;SDS011;38354;52.892;6.148;2022-11-15T14:35:16;20.83;;;2.55;;
52434;SDS011;38354;52.892;6.148;2022-11-15T14:37:44;4.82;;;1.42;;
52434;SDS011;38354;52.892;6.148;2022-11-15T14:40:12;6.72;;;1.67;;
52434;SDS011;38354;52.892;6.148;2022-11-15T14:42:39;9.55;;;1.65;;
52434;SDS011;38354;52.892;6.148;2022-11-15T14:45:12;2.67;;;1.23;;
52434;SDS011;38354;52.892;6.148;2022-11-15T14:47:43;4.20;;;1.52;;
52434;SDS011;38354;52.892;6.148;2022-11-15T14:50:12;4.10;;;1.30;;
52434;SDS011;38354;52.892;6.148;2022-11-15T14:52:49;4.82;;;1.55;;
52434;SDS011;38354;52.892;6.148;2022-11-15T14:55:30;2.42;;;1.20;;
52434;SDS011;38354;52.892;6.148;2022-11-15T14:58:00;3.03;;;1.20;;
52434;SDS011;38354;52.892;6.148;2022-11-15T15:00:28;3.58;;;1.30;;
52434;SDS011;38354;52.892;6.148;2022-11-15T15:02:55;4.57;;;1.40;;
52434;SDS011;38354;52.892;6.148;2022-11-15T15:05:22;5.63;;;1.50;;
52434;SDS011;38354;52.892;6.148;2022-11-15T15:07:49;4.20;;;1.35;;
52434;SDS011;38354;52.892;6.148;2022-11-15T15:10:17;4.05;;;1.33;;
52434;SDS011;38354;52.892;6.148;2022-11-15T15:12:43;5.15;;;1.48;;
52434;SDS011;38354;52.892;6.148;2022-11-15T15:15:14;3.50;;;1.50;;
52434;SDS011;38354;52.892;6.148;2022-11-15T15:17:41;3.42;;;1.48;;
52434;SDS011;38354;52.892;6.148;2022-11-15T15:20:08;4.95;;;1.48;;
52434;SDS011;38354;52.892;6.148;2022-11-15T15:22:34;5.82;;;1.70;;
52434;SDS011;38354;52.892;6.148;2022-11-15T15:25:00;17.90;;;2.30;;
52434;SDS011;38354;52.892;6.148;2022-11-15T15:27:27;4.28;;;1.40;;
52434;SDS011;38354;52.892;6.148;2022-11-15T15:29:53;4.28;;;1.55;;
52434;SDS011;38354;52.892;6.148;2022-11-15T15:32:18;5.72;;;2.10;;
52434;SDS011;38354;52.892;6.148;2022-11-15T15:34:44;6.63;;;1.90;;
52434;SDS011;38354;52.892;6.148;2022-11-15T15:39:52;7.35;;;2.40;;
52434;SDS011;38354;52.892;6.148;2022-11-15T15:42:19;7.07;;;2.45;;
52434;SDS011;38354;52.892;6.148;2022-11-15T15:44:46;5.53;;;2.85;;
52434;SDS011;38354;52.892;6.148;2022-11-15T15:47:13;6.57;;;3.13;;
52434;SDS011;38354;52.892;6.148;2022-11-15T15:49:42;6.65;;;3.13;;
52434;SDS011;38354;52.892;6.148;2022-11-15T15:52:08;6.63;;;3.38;;
52434;SDS011;38354;52.892;6.148;2022-11-15T15:54:34;8.65;;;3.60;;
52434;SDS011;38354;52.892;6.148;2022-11-15T15:57:00;6.53;;;3.75;;
52434;SDS011;38354;52.892;6.148;2022-11-15T15:59:25;7.28;;;3.95;;
52434;SDS011;38354;52.892;6.148;2022-11-15T16:01:51;7.93;;;4.72;;
52434;SDS011;38354;52.892;6.148;2022-11-15T16:04:17;10.88;;;4.70;;
52434;SDS011;38354;52.892;6.148;2022-11-15T16:06:42;7.45;;;4.53;;
52434;SDS011;38354;52.892;6.148;2022-11-15T16:09:13;8.30;;;5.18;;
52434;SDS011;38354;52.892;6.148;2022-11-15T16:11:40;7.80;;;4.78;;
52434;SDS011;38354;52.892;6.148;2022-11-15T16:14:06;6.45;;;4.22;;
52434;SDS011;38354;52.892;6.148;2022-11-15T16:16:33;8.43;;;4.85;;
52434;SDS011;38354;52.892;6.148;2022-11-15T16:18:59;7.28;;;4.80;;
52434;SDS011;38354;52.892;6.148;2022-11-15T16:21:26;9.70;;;5.00;;
52434;SDS011;38354;52.892;6.148;2022-11-15T16:23:52;7.45;;;4.72;;
52434;SDS011;38354;52.892;6.148;2022-11-15T16:26:20;7.38;;;4.72;;
52434;SDS011;38354;52.892;6.148;2022-11-15T16:28:53;9.07;;;4.70;;
52434;SDS011;38354;52.892;6.148;2022-11-15T16:31:19;6.60;;;4.82;;
52434;SDS011;38354;52.892;6.148;2022-11-15T16:33:47;6.85;;;4.30;;
52434;SDS011;38354;52.892;6.148;2022-11-15T16:36:23;6.70;;;4.22;;
52434;SDS011;38354;52.892;6.148;2022-11-15T16:38:51;8.77;;;4.18;;
52434;SDS011;38354;52.892;6.148;2022-11-15T16:41:17;8.15;;;3.90;;
52434;SDS011;38354;52.892;6.148;2022-11-15T16:43:47;5.82;;;3.50;;
52434;SDS011;38354;52.892;6.148;2022-11-15T16:46:17;9.95;;;4.35;;
52434;SDS011;38354;52.892;6.148;2022-11-15T16:48:44;6.07;;;3.20;;
52434;SDS011;38354;52.892;6.148;2022-11-15T16:51:11;9.57;;;3.40;;
52434;SDS011;38354;52.892;6.148;2022-11-15T16:53:37;5.88;;;2.88;;
52434;SDS011;38354;52.892;6.148;2022-11-15T16:56:02;7.07;;;3.30;;
52434;SDS011;38354;52.892;6.148;2022-11-15T16:58:28;5.10;;;2.70;;
52434;SDS011;38354;52.892;6.148;2022-11-15T17:00:55;3.63;;;2.25;;
52434;SDS011;38354;52.892;6.148;2022-11-15T17:03:24;6.18;;;2.20;;
52434;SDS011;38354;52.892;6.148;2022-11-15T17:05:50;5.80;;;2.42;;
52434;SDS011;38354;52.892;6.148;2022-11-15T17:08:16;4.78;;;2.17;;
52434;SDS011;38354;52.892;6.148;2022-11-15T17:10:41;4.53;;;2.08;;
52434;SDS011;38354;52.892;6.148;2022-11-15T17:13:11;4.82;;;2.15;;
52434;SDS011;38354;52.892;6.148;2022-11-15T17:15:37;5.32;;;2.00;;
52434;SDS011;38354;52.892;6.148;2022-11-15T17:18:04;8.98;;;2.00;;
52434;SDS011;38354;52.892;6.148;2022-11-15T17:20:30;4.75;;;1.70;;
52434;SDS011;38354;52.892;6.148;2022-11-15T17:22:56;5.28;;;1.60;;
52434;SDS011;38354;52.892;6.148;2022-11-15T17:25:22;4.95;;;1.90;;
52434;SDS011;38354;52.892;6.148;2022-11-15T17:27:48;3.03;;;1.45;;
52434;SDS011;38354;52.892;6.148;2022-11-15T17:33:03;2.33;;;1.10;;
52434;SDS011;38354;52.892;6.148;2022-11-15T17:35:29;4.82;;;1.63;;
52434;SDS011;38354;52.892;6.148;2022-11-15T17:37:55;4.57;;;1.50;;
52434;SDS011;38354;52.892;6.148;2022-11-15T17:40:20;5.45;;;1.75;;
52434;SDS011;38354;52.892;6.148;2022-11-15T17:42:46;4.28;;;1.42;;
52434;SDS011;38354;52.892;6.148;2022-11-15T17:45:12;2.63;;;1.33;;
52434;SDS011;38354;52.892;6.148;2022-11-15T17:47:37;2.95;;;1.35;;
52434;SDS011;38354;52.892;6.148;2022-11-15T17:50:03;3.83;;;1.40;;
52434;SDS011;38354;52.892;6.148;2022-11-15T17:52:29;3.92;;;1.65;;
52434;SDS011;38354;52.892;6.148;2022-11-15T17:54:55;3.33;;;1.40;;
52434;SDS011;38354;52.892;6.148;2022-11-15T17:57:21;5.80;;;1.58;;
52434;SDS011;38354;52.892;6.148;2022-11-15T17:59:46;4.25;;;1.50;;
52434;SDS011;38354;52.892;6.148;2022-11-15T18:02:12;4.07;;;1.20;;
52434;SDS011;38354;52.892;6.148;2022-11-15T18:04:38;3.65;;;1.23;;
52434;SDS011;38354;52.892;6.148;2022-11-15T18:07:04;4.93;;;1.73;;
52434;SDS011;38354;52.892;6.148;2022-11-15T18:09:30;3.78;;;1.40;;
52434;SDS011;38354;52.892;6.148;2022-11-15T18:11:55;5.05;;;1.50;;
52434;SDS011;38354;52.892;6.148;2022-11-15T18:14:22;5.10;;;1.40;;
52434;SDS011;38354;52.892;6.148;2022-11-15T18:16:50;3.58;;;1.33;;
52434;SDS011;38354;52.892;6.148;2022-11-15T18:19:16;4.07;;;1.38;;
52434;SDS011;38354;52.892;6.148;2022-11-15T18:21:42;5.45;;;1.48;;
52434;SDS011;38354;52.892;6.148;2022-11-15T18:26:52;5.85;;;1.40;;
52434;SDS011;38354;52.892;6.148;2022-11-15T18:29:18;3.60;;;1.60;;
52434;SDS011;38354;52.892;6.148;2022-11-15T18:31:44;7.35;;;1.75;;
52434;SDS011;38354;52.892;6.148;2022-11-15T18:34:09;4.05;;;1.52;;
52434;SDS011;38354;52.892;6.148;2022-11-15T18:36:35;5.25;;;1.75;;
52434;SDS011;38354;52.892;6.148;2022-11-15T18:39:03;3.10;;;1.27;;
52434;SDS011;38354;52.892;6.148;2022-11-15T18:41:30;3.67;;;1.50;;
52434;SDS011;38354;52.892;6.148;2022-11-15T18:43:58;5.40;;;1.75;;
52434;SDS011;38354;52.892;6.148;2022-11-15T18:46:26;3.05;;;1.40;;
52434;SDS011;38354;52.892;6.148;2022-11-15T18:48:54;4.22;;;1.83;;
52434;SDS011;38354;52.892;6.148;2022-11-15T18:51:23;5.05;;;1.80;;
52434;SDS011;38354;52.892;6.148;2022-11-15T18:53:53;5.78;;;1.70;;
52434;SDS011;38354;52.892;6.148;2022-11-15T18:56:24;5.20;;;2.00;;
52434;SDS011;38354;52.892;6.148;2022-11-15T18:58:52;5.18;;;1.63;;
52434;SDS011;38354;52.892;6.148;2022-11-15T19:01:24;4.35;;;1.52;;
52434;SDS011;38354;52.892;6.148;2022-11-15T19:03:52;3.85;;;1.77;;
52434;SDS011;38354;52.892;6.148;2022-11-15T19:06:19;5.05;;;1.67;;
52434;SDS011;38354;52.892;6.148;2022-11-15T19:08:52;5.32;;;1.85;;
52434;SDS011;38354;52.892;6.148;2022-11-15T19:11:26;6.70;;;2.05;;
52434;SDS011;38354;52.892;6.148;2022-11-15T19:13:55;3.15;;;1.65;;
52434;SDS011;38354;52.892;6.148;2022-11-15T19:16:23;4.28;;;1.70;;
52434;SDS011;38354;52.892;6.148;2022-11-15T19:18:56;4.35;;;1.77;;
52434;SDS011;38354;52.892;6.148;2022-11-15T19:21:23;8.75;;;1.80;;
52434;SDS011;38354;52.892;6.148;2022-11-15T19:23:50;6.57;;;2.03;;
52434;SDS011;38354;52.892;6.148;2022-11-15T19:26:18;7.15;;;2.33;;
52434;SDS011;38354;52.892;6.148;2022-11-15T19:28:48;5.55;;;1.73;;
52434;SDS011;38354;52.892;6.148;2022-11-15T19:31:16;4.97;;;1.85;;
52434;SDS011;38354;52.892;6.148;2022-11-15T19:33:42;3.45;;;1.88;;
52434;SDS011;38354;52.892;6.148;2022-11-15T19:36:16;5.15;;;1.92;;
52434;SDS011;38354;52.892;6.148;2022-11-15T19:38:44;5.53;;;2.00;;
52434;SDS011;38354;52.892;6.148;2022-11-15T19:41:14;5.03;;;1.70;;
52434;SDS011;38354;52.892;6.148;2022-11-15T19:43:41;4.53;;;2.10;;
52434;SDS011;38354;52.892;6.148;2022-11-15T19:46:08;8.80;;;2.42;;
52434;SDS011;38354;52.892;6.148;2022-11-15T19:48:36;4.45;;;2.42;;
52434;SDS011;38354;52.892;6.148;2022-11-15T19:51:05;5.47;;;2.15;;
52434;SDS011;38354;52.892;6.148;2022-11-15T19:53:33;5.57;;;2.22;;
52434;SDS011;38354;52.892;6.148;2022-11-15T19:56:00;6.95;;;2.67;;
52434;SDS011;38354;52.892;6.148;2022-11-15T19:58:27;6.45;;;2.22;;
52434;SDS011;38354;52.892;6.148;2022-11-15T20:03:29;4.72;;;2.15;;
52434;SDS011;38354;52.892;6.148;2022-11-15T20:06:03;4.03;;;2.28;;
52434;SDS011;38354;52.892;6.148;2022-11-15T20:08:34;6.32;;;2.90;;
52434;SDS011;38354;52.892;6.148;2022-11-15T20:11:00;6.45;;;3.15;;
52434;SDS011;38354;52.892;6.148;2022-11-15T20:13:26;6.05;;;2.88;;
52434;SDS011;38354;52.892;6.148;2022-11-15T20:15:52;6.25;;;2.75;;
52434;SDS011;38354;52.892;6.148;2022-11-15T20:18:18;6.25;;;2.78;;
52434;SDS011;38354;52.892;6.148;2022-11-15T20:20:45;5.57;;;3.10;;
52434;SDS011;38354;52.892;6.148;2022-11-15T20:23:11;8.30;;;3.78;;
52434;SDS011;38354;52.892;6.148;2022-11-15T20:25:38;8.10;;;4.43;;
52434;SDS011;38354;52.892;6.148;2022-11-15T20:28:04;8.55;;;4.20;;
52434;SDS011;38354;52.892;6.148;2022-11-15T20:30:30;7.30;;;4.30;;
52434;SDS011;38354;52.892;6.148;2022-11-15T20:32:58;6.35;;;3.30;;
52434;SDS011;38354;52.892;6.148;2022-11-15T20:35:24;8.45;;;4.20;;
52434;SDS011;38354;52.892;6.148;2022-11-15T20:37:50;8.10;;;3.67;;